Time;durP1;ratioP1;P1;durP2;ratioP2;P2;SDS_P1;SDS_P2;PMS_P1;PMS_P2;Temp;Humidity;BMP_temperature;BMP_pressure;BME280_temperature;BME280_humidity;BME280_pressure;Samples;Min_cycle;Max_cycle;Signal;HPM_P1;HPM_P2
2021/12/12 00:01:49;;;;;;;;;;;21.30;51.30;;;;;;4921834;29;19917;-85
2021/12/12 00:04:16;;;;;;;;;;;21.30;51.30;;;;;;4952601;29;19962;-85
2021/12/12 00:06:46;;;;;;;;;;;21.30;51.10;;;;;;4936012;29;19918;-85
2021/12/12 00:09:23;;;;;;;;;;;21.30;51.10;;;;;;4920947;29;20305;-85
2021/12/12 00:11:49;;;;;;;;;;;21.30;51.20;;;;;;4937118;29;19910;-85
2021/12/12 00:14:20;;;;;;;;;;;21.30;51.20;;;;;;4954195;28;19998;-84
2021/12/12 00:16:46;;;;;;;;;;;21.30;51.00;;;;;;4937175;29;19914;-85
2021/12/12 00:19:12;;;;;;;;;;;21.30;51.10;;;;;;4936691;29;19914;-85
2021/12/12 00:21:39;;;;;;;;;;;21.30;51.20;;;;;;4921523;29;20314;-85
2021/12/12 00:24:06;;;;;;;;;;;21.30;51.20;;;;;;4937160;29;20374;-85
2021/12/12 00:26:31;;;;;;;;;;;21.30;51.20;;;;;;4953790;29;20375;-85
2021/12/12 00:28:57;;;;;;;;;;;21.30;50.90;;;;;;4937603;29;20045;-86
2021/12/12 00:31:23;;;;;;;;;;;21.30;50.90;;;;;;4921081;29;19910;-86
2021/12/12 00:33:54;;;;;;;;;;;21.30;51.00;;;;;;4936841;28;19910;-86
2021/12/12 00:36:21;;;;;;;;;;;21.30;51.10;;;;;;4936378;29;20383;-85
2021/12/12 00:38:49;;;;;;;;;;;21.30;51.00;;;;;;4952491;28;19942;-86
2021/12/12 00:41:16;;;;;;;;;;;21.30;50.90;;;;;;4953805;28;19917;-85
2021/12/12 00:43:45;;;;;;;;;;;21.30;51.10;;;;;;4952497;28;20013;-85
2021/12/12 00:46:11;;;;;;;;;;;21.30;50.90;;;;;;4953414;28;19914;-85
2021/12/12 00:48:41;;;;;;;;;;;21.30;50.90;;;;;;4953505;29;19930;-85
2021/12/12 00:51:09;;;;;;;;;;;21.30;50.80;;;;;;4936243;29;19940;-85
2021/12/12 00:53:35;;;;;;;;;;;21.30;51.00;;;;;;4952475;29;19957;-85
2021/12/12 00:56:00;;;;;;;;;;;21.30;51.10;;;;;;4935718;29;19949;-85
2021/12/12 00:58:26;;;;;;;;;;;21.30;51.20;;;;;;4920723;29;20291;-85
2021/12/12 01:00:59;;;;;;;;;;;21.20;51.10;;;;;;4920605;29;20492;-85
2021/12/12 01:03:28;;;;;;;;;;;21.20;51.10;;;;;;4936438;29;19921;-85
2021/12/12 01:05:57;;;;;;;;;;;21.20;51.10;;;;;;4936962;29;20250;-85
2021/12/12 01:08:23;;;;;;;;;;;21.20;51.20;;;;;;4936694;29;20357;-85
2021/12/12 01:10:51;;;;;;;;;;;21.20;51.20;;;;;;4936404;29;19914;-85
2021/12/12 01:13:17;;;;;;;;;;;21.20;51.20;;;;;;4920464;29;19964;-85
2021/12/12 01:15:50;;;;;;;;;;;21.20;51.10;;;;;;4951789;29;19918;-84
2021/12/12 01:18:18;;;;;;;;;;;21.20;51.10;;;;;;4920476;29;19914;-85
2021/12/12 01:20:51;;;;;;;;;;;21.20;50.90;;;;;;4936110;29;19910;-85
2021/12/12 01:23:20;;;;;;;;;;;21.20;51.10;;;;;;4920691;29;20282;-85
2021/12/12 01:25:47;;;;;;;;;;;21.10;51.10;;;;;;4951906;29;19974;-84
2021/12/12 01:28:15;;;;;;;;;;;21.20;51.20;;;;;;4920288;29;19910;-85
2021/12/12 01:30:41;;;;;;;;;;;21.20;51.10;;;;;;4935746;29;19915;-85
2021/12/12 01:33:09;;;;;;;;;;;21.20;51.10;;;;;;4936055;29;19910;-85
2021/12/12 01:35:37;;;;;;;;;;;21.10;50.90;;;;;;4935343;29;19914;-85
2021/12/12 01:40:51;;;;;;;;;;;21.20;51.00;;;;;;4951563;29;20013;-85
2021/12/12 01:43:20;;;;;;;;;;;21.20;50.90;;;;;;4952917;28;19910;-85
2021/12/12 01:45:48;;;;;;;;;;;21.20;51.00;;;;;;4934896;29;19957;-85
2021/12/12 01:48:16;;;;;;;;;;;21.20;50.90;;;;;;4936152;29;19910;-85
2021/12/12 01:50:48;;;;;;;;;;;21.20;50.70;;;;;;4951064;28;19949;-85
2021/12/12 01:53:15;;;;;;;;;;;21.20;50.80;;;;;;4951505;29;20005;-85
2021/12/12 01:55:46;;;;;;;;;;;21.20;50.80;;;;;;4935278;29;20409;-85
2021/12/12 01:58:13;;;;;;;;;;;21.20;50.80;;;;;;4935841;29;19921;-85
2021/12/12 02:00:47;;;;;;;;;;;21.20;50.60;;;;;;4951319;28;19933;-85
2021/12/12 02:03:19;;;;;;;;;;;21.20;50.60;;;;;;4952725;29;19917;-86
2021/12/12 02:05:46;;;;;;;;;;;21.20;50.80;;;;;;4952226;28;19969;-85
2021/12/12 02:08:13;;;;;;;;;;;21.20;50.80;;;;;;4935194;29;20002;-85
2021/12/12 02:10:41;;;;;;;;;;;21.20;50.60;;;;;;4935367;29;20420;-85
2021/12/12 02:13:08;;;;;;;;;;;21.20;50.80;;;;;;4935076;29;20208;-85
2021/12/12 02:15:36;;;;;;;;;;;21.20;50.90;;;;;;4934665;29;20401;-86
2021/12/12 02:18:07;;;;;;;;;;;21.20;50.80;;;;;;4934756;29;19985;-86
2021/12/12 02:20:41;;;;;;;;;;;21.10;50.70;;;;;;4934516;29;20062;-85
2021/12/12 02:23:18;;;;;;;;;;;21.10;50.80;;;;;;4934904;29;19915;-85
2021/12/12 02:36:58;;;;;;;;;;;21.10;50.80;;;;;;4955855;29;19966;-85
2021/12/12 02:39:24;;;;;;;;;;;21.10;50.90;;;;;;4954532;28;19987;-85
2021/12/12 02:41:51;;;;;;;;;;;21.10;50.90;;;;;;4954075;29;20363;-85
2021/12/12 02:44:20;;;;;;;;;;;21.10;51.00;;;;;;4955534;28;19917;-85
2021/12/12 02:46:48;;;;;;;;;;;21.10;50.80;;;;;;4955623;28;19938;-85
2021/12/12 02:49:36;;;;;;;;;;;21.10;51.00;;;;;;4938838;29;20355;-85
2021/12/12 02:52:04;;;;;;;;;;;21.10;50.90;;;;;;4922274;29;20336;-85
2021/12/12 02:54:29;;;;;;;;;;;21.10;51.20;;;;;;4955479;28;20018;-85
2021/12/12 02:56:55;;;;;;;;;;;21.10;50.90;;;;;;4954051;29;20343;-85
2021/12/12 02:59:22;;;;;;;;;;;21.10;50.90;;;;;;4955468;28;20255;-85
2021/12/12 03:01:51;;;;;;;;;;;21.10;50.90;;;;;;4937926;29;19910;-85
2021/12/12 03:04:17;;;;;;;;;;;21.10;50.90;;;;;;4921819;29;19910;-85
2021/12/12 03:06:43;;;;;;;;;;;21.10;50.80;;;;;;4937594;29;19911;-85
2021/12/12 03:09:15;;;;;;;;;;;21.10;50.60;;;;;;4955238;29;20005;-85
2021/12/12 03:11:41;;;;;;;;;;;21.10;50.50;;;;;;4954959;29;19910;-85
2021/12/12 03:14:07;;;;;;;;;;;21.10;50.70;;;;;;4937694;29;19914;-85
2021/12/12 03:16:33;;;;;;;;;;;21.10;50.60;;;;;;4937317;29;19994;-85
2021/12/12 03:18:59;;;;;;;;;;;21.20;50.50;;;;;;4954663;28;20020;-84
2021/12/12 03:21:32;;;;;;;;;;;21.10;50.50;;;;;;4937381;29;19910;-85
2021/12/12 03:24:06;;;;;;;;;;;21.10;50.60;;;;;;4954766;28;20017;-85
2021/12/12 03:26:35;;;;;;;;;;;21.10;50.60;;;;;;4937276;29;19910;-85
2021/12/12 03:29:02;;;;;;;;;;;21.20;50.70;;;;;;4953404;28;19911;-85
2021/12/12 03:31:30;;;;;;;;;;;21.10;50.70;;;;;;4937129;29;19918;-85
2021/12/12 03:33:57;;;;;;;;;;;21.10;50.70;;;;;;4937207;28;19921;-85
2021/12/12 03:36:22;;;;;;;;;;;21.10;50.70;;;;;;4937409;29;19910;-85
2021/12/12 03:38:51;;;;;;;;;;;21.10;50.70;;;;;;4937128;29;19914;-85
2021/12/12 03:41:19;;;;;;;;;;;21.10;50.80;;;;;;4953335;28;19914;-85
2021/12/12 03:43:49;;;;;;;;;;;21.10;50.90;;;;;;4953035;28;19958;-85
2021/12/12 03:46:15;;;;;;;;;;;21.00;50.80;;;;;;4954796;28;19914;-85
2021/12/12 03:48:42;;;;;;;;;;;21.00;50.80;;;;;;4937474;29;19965;-85
2021/12/12 03:51:08;;;;;;;;;;;21.10;50.90;;;;;;4954632;29;19910;-85
2021/12/12 03:53:35;;;;;;;;;;;21.10;50.90;;;;;;4955255;28;20350;-85
2021/12/12 03:56:02;;;;;;;;;;;21.10;50.90;;;;;;4953598;28;19961;-85
2021/12/12 03:58:28;;;;;;;;;;;21.00;50.80;;;;;;4937306;29;19914;-85
2021/12/12 04:01:00;;;;;;;;;;;21.10;50.90;;;;;;4955493;29;20013;-85
2021/12/12 04:03:26;;;;;;;;;;;21.00;50.80;;;;;;4937653;29;19941;-85
2021/12/12 04:05:53;;;;;;;;;;;21.10;50.80;;;;;;4953258;29;19977;-85
2021/12/12 04:08:24;;;;;;;;;;;21.00;50.80;;;;;;4937075;29;20358;-85
2021/12/12 04:10:50;;;;;;;;;;;21.00;50.70;;;;;;4954096;29;19918;-85
2021/12/12 04:13:15;;;;;;;;;;;21.00;50.80;;;;;;4954628;29;20089;-85
2021/12/12 04:15:41;;;;;;;;;;;21.00;50.80;;;;;;4953915;28;19957;-85
2021/12/12 04:18:07;;;;;;;;;;;21.00;50.70;;;;;;4953872;28;19922;-85
2021/12/12 04:20:34;;;;;;;;;;;21.00;50.80;;;;;;4953939;28;20453;-85
2021/12/12 04:23:00;;;;;;;;;;;21.00;50.70;;;;;;4936689;29;20060;-85
2021/12/12 04:25:26;;;;;;;;;;;21.00;50.70;;;;;;4953441;28;20053;-85
2021/12/12 04:27:53;;;;;;;;;;;21.00;50.80;;;;;;4936819;29;19914;-85
2021/12/12 04:30:19;;;;;;;;;;;21.00;50.60;;;;;;4936844;29;19993;-85
2021/12/12 04:32:45;;;;;;;;;;;21.10;50.70;;;;;;4952486;29;19910;-85
2021/12/12 04:35:16;;;;;;;;;;;21.10;50.50;;;;;;4953058;28;19917;-85
2021/12/12 04:37:44;;;;;;;;;;;21.00;50.50;;;;;;4953529;29;19981;-85
2021/12/12 04:40:15;;;;;;;;;;;21.10;50.40;;;;;;4953305;29;19933;-85
2021/12/12 04:42:42;;;;;;;;;;;21.10;50.50;;;;;;4953428;29;19911;-85
2021/12/12 04:45:17;;;;;;;;;;;21.10;50.40;;;;;;4963172;23;20349;-76
2021/12/12 04:50:46;;;;;;;;;;;21.10;50.50;;;;;;4974461;28;20371;-76
2021/12/12 04:53:47;;;;;;;;;;;21.10;50.60;;;;;;4973796;28;19910;-76
2021/12/12 04:56:17;;;;;;;;;;;21.00;50.60;;;;;;4914236;29;19989;-76
2021/12/12 04:58:45;;;;;;;;;;;21.00;50.50;;;;;;4947629;29;20012;-75
2021/12/12 05:01:14;;;;;;;;;;;21.00;50.70;;;;;;4954962;29;19997;-76
2021/12/12 05:03:50;;;;;;;;;;;21.00;50.60;;;;;;4954709;29;20360;-76
2021/12/12 05:06:37;;;;;;;;;;;21.00;50.60;;;;;;4937397;29;19910;-76
2021/12/12 05:09:06;;;;;;;;;;;21.00;50.50;;;;;;4954774;29;19914;-76
2021/12/12 05:11:38;;;;;;;;;;;21.00;50.60;;;;;;4954718;29;19910;-76
2021/12/12 05:14:07;;;;;;;;;;;21.00;50.60;;;;;;4954752;29;19914;-75
2021/12/12 05:16:35;;;;;;;;;;;21.00;50.50;;;;;;4937210;29;20004;-76
2021/12/12 05:19:08;;;;;;;;;;;21.00;50.50;;;;;;4954368;29;20367;-76
2021/12/12 05:21:36;;;;;;;;;;;21.00;50.70;;;;;;4937540;29;20394;-75
2021/12/12 05:24:04;;;;;;;;;;;21.00;50.60;;;;;;4937041;29;20291;-76
2021/12/12 05:26:34;;;;;;;;;;;21.00;50.60;;;;;;4954291;28;19914;-76
2021/12/12 05:29:06;;;;;;;;;;;20.90;50.50;;;;;;4954505;29;19997;-76
2021/12/12 05:31:32;;;;;;;;;;;21.00;50.60;;;;;;4954454;29;20001;-76
2021/12/12 05:33:57;;;;;;;;;;;21.00;50.50;;;;;;4954180;29;20010;-76
2021/12/12 05:36:23;;;;;;;;;;;21.00;50.50;;;;;;4954110;28;20310;-76
2021/12/12 05:38:49;;;;;;;;;;;21.00;50.60;;;;;;4954022;29;19914;-76
2021/12/12 05:41:18;;;;;;;;;;;20.90;50.40;;;;;;4954264;29;19917;-76
2021/12/12 05:43:45;;;;;;;;;;;21.00;50.50;;;;;;4937268;29;20351;-76
2021/12/12 05:46:15;;;;;;;;;;;21.00;50.40;;;;;;4953452;28;19915;-76
2021/12/12 05:48:44;;;;;;;;;;;21.00;50.50;;;;;;4953857;28;19914;-76
2021/12/12 05:51:10;;;;;;;;;;;21.00;50.40;;;;;;4953871;29;19957;-76
2021/12/12 05:53:36;;;;;;;;;;;21.00;50.40;;;;;;4936967;29;19961;-75
2021/12/12 05:56:02;;;;;;;;;;;21.00;50.60;;;;;;4936619;29;20357;-76
2021/12/12 05:58:29;;;;;;;;;;;21.00;50.10;;;;;;4953825;29;19915;-76
2021/12/12 06:00:56;;;;;;;;;;;21.00;50.50;;;;;;4936745;29;19910;-76
2021/12/12 06:03:26;;;;;;;;;;;21.00;50.20;;;;;;4953737;29;19911;-76
2021/12/12 06:05:52;;;;;;;;;;;21.00;50.30;;;;;;4920065;29;20006;-76
2021/12/12 06:08:19;;;;;;;;;;;21.00;50.20;;;;;;4953702;28;19910;-76
2021/12/12 06:10:45;;;;;;;;;;;21.00;50.40;;;;;;4953848;28;20386;-76
2021/12/12 06:13:12;;;;;;;;;;;21.00;50.50;;;;;;4936726;29;19910;-76
2021/12/12 06:15:37;;;;;;;;;;;21.00;50.40;;;;;;4953328;28;19911;-76
2021/12/12 06:18:04;;;;;;;;;;;21.00;50.50;;;;;;4953472;29;20401;-76
2021/12/12 06:20:30;;;;;;;;;;;21.00;50.50;;;;;;4953560;29;19914;-76
2021/12/12 06:22:56;;;;;;;;;;;20.90;50.40;;;;;;4936596;29;19918;-76
2021/12/12 06:25:22;;;;;;;;;;;20.90;50.40;;;;;;4936013;29;20267;-76
2021/12/12 06:27:48;;;;;;;;;;;21.00;50.50;;;;;;4936373;29;19915;-76
2021/12/12 06:30:15;;;;;;;;;;;20.90;50.40;;;;;;4936362;29;19969;-76
2021/12/12 06:32:42;;;;;;;;;;;20.90;50.30;;;;;;4936362;29;19965;-76
2021/12/12 06:35:09;;;;;;;;;;;20.90;50.40;;;;;;4936132;29;19945;-76
2021/12/12 06:37:35;;;;;;;;;;;20.90;50.30;;;;;;4953489;29;19910;-76
2021/12/12 06:40:04;;;;;;;;;;;20.90;50.20;;;;;;4953362;29;19922;-75
2021/12/12 06:42:32;;;;;;;;;;;20.90;50.30;;;;;;4953373;29;19914;-76
2021/12/12 06:44:58;;;;;;;;;;;21.00;50.30;;;;;;4935585;29;20379;-76
2021/12/12 06:47:23;;;;;;;;;;;20.90;50.30;;;;;;4936270;29;20373;-76
2021/12/12 06:49:49;;;;;;;;;;;20.90;50.30;;;;;;4953318;29;20007;-76
2021/12/12 06:52:16;;;;;;;;;;;20.90;50.30;;;;;;4936375;29;19911;-76
2021/12/12 06:54:41;;;;;;;;;;;20.90;50.30;;;;;;4935431;29;19911;-76
2021/12/12 06:57:09;;;;;;;;;;;20.90;50.10;;;;;;4936014;29;19910;-76
2021/12/12 06:59:36;;;;;;;;;;;20.90;50.30;;;;;;4953104;29;20375;-76
2021/12/12 07:02:02;;;;;;;;;;;20.90;50.30;;;;;;4953451;28;19965;-76
2021/12/12 07:04:29;;;;;;;;;;;20.90;50.30;;;;;;4952926;29;19911;-76
2021/12/12 07:06:57;;;;;;;;;;;20.90;50.30;;;;;;4953199;29;20012;-76
2021/12/12 07:09:23;;;;;;;;;;;20.90;50.30;;;;;;4936083;29;19917;-76
2021/12/12 07:11:49;;;;;;;;;;;20.90;50.00;;;;;;4953170;29;19910;-76
2021/12/12 07:14:16;;;;;;;;;;;20.90;50.30;;;;;;4952896;28;20311;-76
2021/12/12 07:16:42;;;;;;;;;;;20.90;49.80;;;;;;4937621;29;19911;-76
2021/12/12 07:19:08;;;;;;;;;;;20.90;50.20;;;;;;4939572;29;19914;-76
2021/12/12 07:21:34;;;;;;;;;;;20.90;50.30;;;;;;4939720;29;20422;-76
2021/12/12 07:24:00;;;;;;;;;;;21.00;50.20;;;;;;4956665;28;19921;-76
2021/12/12 07:26:27;;;;;;;;;;;20.90;50.20;;;;;;4956501;29;19914;-77
2021/12/12 07:28:54;;;;;;;;;;;20.90;50.10;;;;;;4956489;29;19910;-76
2021/12/12 07:31:21;;;;;;;;;;;21.00;50.00;;;;;;4956439;29;20270;-76
2021/12/12 07:33:49;;;;;;;;;;;20.90;50.20;;;;;;4956578;28;19910;-76
2021/12/12 07:36:15;;;;;;;;;;;20.90;50.10;;;;;;4956077;29;19910;-76
2021/12/12 07:38:45;;;;;;;;;;;20.90;50.00;;;;;;4939137;29;19922;-76
2021/12/12 07:41:12;;;;;;;;;;;20.90;50.20;;;;;;4956261;29;19917;-76
2021/12/12 07:43:38;;;;;;;;;;;20.90;50.30;;;;;;4939381;29;19918;-76
2021/12/12 07:46:04;;;;;;;;;;;20.90;50.10;;;;;;4938539;29;20146;-76
2021/12/12 07:48:30;;;;;;;;;;;20.90;50.20;;;;;;4939173;29;19918;-76
2021/12/12 07:50:56;;;;;;;;;;;20.90;50.30;;;;;;4956073;28;20367;-76
2021/12/12 07:53:23;;;;;;;;;;;20.90;50.20;;;;;;4939342;29;19959;-76
2021/12/12 07:55:48;;;;;;;;;;;20.90;50.20;;;;;;4955895;29;19997;-76
2021/12/12 07:58:15;;;;;;;;;;;20.90;50.20;;;;;;4938863;29;20005;-76
2021/12/12 08:00:43;;;;;;;;;;;20.90;50.20;;;;;;4939070;29;19911;-76
2021/12/12 08:03:09;;;;;;;;;;;20.90;50.10;;;;;;4956282;29;19914;-76
2021/12/12 08:05:35;;;;;;;;;;;20.90;50.20;;;;;;4955624;29;19911;-76
2021/12/12 08:08:04;;;;;;;;;;;20.90;50.20;;;;;;4955850;29;19918;-76
2021/12/12 08:10:30;;;;;;;;;;;20.90;50.00;;;;;;4954569;29;20462;-77
2021/12/12 08:12:57;;;;;;;;;;;20.90;50.20;;;;;;4956052;28;20338;-77
2021/12/12 08:15:23;;;;;;;;;;;20.90;50.00;;;;;;4955030;28;19914;-77
2021/12/12 08:17:48;;;;;;;;;;;20.90;50.20;;;;;;4938513;29;19911;-77
2021/12/12 08:20:15;;;;;;;;;;;20.90;50.10;;;;;;4955567;28;19914;-77
2021/12/12 08:22:41;;;;;;;;;;;20.90;50.30;;;;;;4938400;29;19911;-77
2021/12/12 08:25:08;;;;;;;;;;;20.90;50.10;;;;;;4954984;28;19911;-77
2021/12/12 08:27:35;;;;;;;;;;;20.90;49.90;;;;;;4937840;29;20363;-77
2021/12/12 08:30:00;;;;;;;;;;;20.90;50.30;;;;;;4955578;29;19914;-77
2021/12/12 08:32:27;;;;;;;;;;;20.90;49.90;;;;;;4955643;29;19933;-77
2021/12/12 08:34:52;;;;;;;;;;;20.90;50.20;;;;;;4955065;28;19993;-77
2021/12/12 08:37:18;;;;;;;;;;;20.90;50.30;;;;;;4938171;29;19989;-77
2021/12/12 08:39:45;;;;;;;;;;;20.90;50.10;;;;;;4955065;29;20347;-77
2021/12/12 08:42:12;;;;;;;;;;;20.90;50.00;;;;;;4955293;29;19954;-77
2021/12/12 08:44:39;;;;;;;;;;;20.90;50.00;;;;;;4937388;29;19911;-77
2021/12/12 08:47:06;;;;;;;;;;;20.90;50.10;;;;;;4955097;29;19914;-77
2021/12/12 08:49:33;;;;;;;;;;;20.90;50.00;;;;;;4938323;29;20377;-77
2021/12/12 08:52:18;;;;;;;;;;;20.90;50.00;;;;;;4938052;29;19914;-77
2021/12/12 08:54:46;;;;;;;;;;;20.90;50.10;;;;;;4953012;29;19911;-77
2021/12/12 08:57:20;;;;;;;;;;;20.90;49.80;;;;;;4937886;29;19978;-77
2021/12/12 08:59:46;;;;;;;;;;;20.90;50.10;;;;;;4937715;29;20382;-77
2021/12/12 09:02:13;;;;;;;;;;;20.90;50.10;;;;;;4954968;28;19998;-76
2021/12/12 09:04:42;;;;;;;;;;;20.90;49.80;;;;;;4954210;28;19910;-77
2021/12/12 09:07:17;;;;;;;;;;;20.90;50.20;;;;;;4954872;28;20446;-77
2021/12/12 09:09:47;;;;;;;;;;;20.90;50.10;;;;;;4937588;29;19948;-77
2021/12/12 09:12:25;;;;;;;;;;;20.90;50.20;;;;;;4954698;29;19916;-77
2021/12/12 09:14:58;;;;;;;;;;;20.90;50.20;;;;;;4954239;29;20298;-77
2021/12/12 09:17:53;;;;;;;;;;;20.90;50.00;;;;;;4937595;29;19918;-77
2021/12/12 09:20:31;;;;;;;;;;;20.90;50.30;;;;;;4946195;29;19914;-76
2021/12/12 09:23:09;;;;;;;;;;;20.90;50.10;;;;;;4954559;29;20009;-77
2021/12/12 09:25:37;;;;;;;;;;;20.80;50.10;;;;;;4936833;29;20061;-77
2021/12/12 09:28:06;;;;;;;;;;;20.80;50.20;;;;;;4954240;28;19949;-77
2021/12/12 09:30:31;;;;;;;;;;;20.90;50.30;;;;;;4954371;28;19915;-77
2021/12/12 09:33:04;;;;;;;;;;;20.80;50.20;;;;;;4937158;29;19934;-77
2021/12/12 09:35:34;;;;;;;;;;;20.80;50.00;;;;;;4954164;29;19921;-76
2021/12/12 09:37:59;;;;;;;;;;;20.80;50.10;;;;;;4936804;29;19918;-77
2021/12/12 09:40:42;;;;;;;;;;;20.80;50.00;;;;;;4954115;28;19911;-77
2021/12/12 09:43:26;;;;;;;;;;;20.80;50.10;;;;;;4954218;29;19957;-77
2021/12/12 09:46:04;;;;;;;;;;;20.80;50.10;;;;;;4920805;29;19914;-76
2021/12/12 09:51:44;;;;;;;;;;;20.80;50.20;;;;;;4939500;29;19911;-77
2021/12/12 09:54:23;;;;;;;;;;;20.80;50.20;;;;;;4936434;29;19921;-77
2021/12/12 09:56:50;;;;;;;;;;;20.80;50.20;;;;;;4953793;29;19917;-77
2021/12/12 09:59:41;;;;;;;;;;;20.80;50.20;;;;;;4936595;29;19914;-77
2021/12/12 10:02:12;;;;;;;;;;;20.80;50.20;;;;;;4935342;29;20355;-77
2021/12/12 10:04:46;;;;;;;;;;;20.80;50.10;;;;;;4936579;29;19914;-76
2021/12/12 10:07:16;;;;;;;;;;;20.80;50.10;;;;;;4921124;29;20124;-77
2021/12/12 10:09:45;;;;;;;;;;;20.80;50.20;;;;;;4953614;29;19910;-77
2021/12/12 10:12:17;;;;;;;;;;;20.90;50.10;;;;;;4953827;28;19921;-77
2021/12/12 10:14:47;;;;;;;;;;;20.80;50.20;;;;;;4953350;29;19953;-76
2021/12/12 10:17:30;;;;;;;;;;;20.80;50.20;;;;;;4953881;29;20001;-77
2021/12/12 10:19:59;;;;;;;;;;;20.80;50.00;;;;;;4953552;29;19921;-77
2021/12/12 10:22:44;;;;;;;;;;;20.80;50.10;;;;;;4936586;29;19911;-78
2021/12/12 10:25:12;;;;;;;;;;;20.80;50.10;;;;;;4953207;29;19978;-77
2021/12/12 10:27:43;;;;;;;;;;;20.80;50.20;;;;;;4953891;29;19945;-77
2021/12/12 10:30:23;;;;;;;;;;;20.80;50.10;;;;;;4953357;28;19915;-77
2021/12/12 10:33:02;;;;;;;;;;;20.80;50.20;;;;;;4936475;29;19914;-77
2021/12/12 10:35:34;;;;;;;;;;;20.80;50.20;;;;;;4953294;29;20268;-77
2021/12/12 10:38:04;;;;;;;;;;;20.80;50.10;;;;;;4936886;29;19910;-77
2021/12/12 10:40:38;;;;;;;;;;;20.80;50.20;;;;;;4953375;29;19910;-76
2021/12/12 10:43:07;;;;;;;;;;;20.80;50.10;;;;;;4953560;29;20294;-77
2021/12/12 10:45:35;;;;;;;;;;;20.80;50.10;;;;;;4986649;23;19925;-73
2021/12/12 10:48:04;;;;;;;;;;;20.80;50.10;;;;;;4964605;28;19913;-73
2021/12/12 10:50:43;;;;;;;;;;;20.80;50.20;;;;;;4999920;28;19948;-73
2021/12/12 10:53:17;;;;;;;;;;;20.80;50.20;;;;;;5002178;28;19909;-73
2021/12/12 10:56:01;;;;;;;;;;;20.80;50.10;;;;;;4991819;28;19909;-74
2021/12/12 10:58:37;;;;;;;;;;;20.80;50.10;;;;;;4983206;28;19964;-73
2021/12/12 11:01:08;;;;;;;;;;;20.80;50.10;;;;;;4980850;28;19909;-74
2021/12/12 11:03:36;;;;;;;;;;;20.70;50.20;;;;;;4996068;28;19981;-74
2021/12/12 11:06:08;;;;;;;;;;;20.70;50.10;;;;;;4995729;28;19910;-73
2021/12/12 11:08:41;;;;;;;;;;;20.80;50.30;;;;;;4995700;28;19945;-74
2021/12/12 11:11:10;;;;;;;;;;;20.80;50.20;;;;;;4995856;28;19935;-74
2021/12/12 11:13:39;;;;;;;;;;;20.80;50.10;;;;;;4995909;28;19964;-74
2021/12/12 11:16:09;;;;;;;;;;;20.70;50.20;;;;;;4977867;28;19945;-74
2021/12/12 11:18:39;;;;;;;;;;;20.80;50.20;;;;;;4995621;28;19914;-74
2021/12/12 11:21:05;;;;;;;;;;;20.70;50.20;;;;;;4977997;28;20377;-73
2021/12/12 11:23:35;;;;;;;;;;;20.80;50.20;;;;;;4995676;28;19916;-74
2021/12/12 11:26:06;;;;;;;;;;;20.70;50.20;;;;;;4994852;28;19909;-74
2021/12/12 11:28:43;;;;;;;;;;;20.70;50.20;;;;;;4995581;28;19925;-74
2021/12/12 11:31:15;;;;;;;;;;;20.80;50.10;;;;;;4977993;28;19913;-74
2021/12/12 11:33:43;;;;;;;;;;;20.80;50.20;;;;;;4977905;28;19913;-74
2021/12/12 11:36:12;;;;;;;;;;;20.70;50.10;;;;;;4961268;28;20212;-74
2021/12/12 11:38:52;;;;;;;;;;;20.70;50.00;;;;;;4995264;28;19968;-74
2021/12/12 11:41:25;;;;;;;;;;;20.80;50.00;;;;;;4977662;28;20286;-74
2021/12/12 11:44:06;;;;;;;;;;;20.80;50.10;;;;;;4962171;28;20445;-74
2021/12/12 11:46:38;;;;;;;;;;;20.80;50.20;;;;;;4977109;28;19949;-74
2021/12/12 11:49:21;;;;;;;;;;;20.80;50.20;;;;;;4977177;28;19920;-74
2021/12/12 11:51:51;;;;;;;;;;;20.80;50.10;;;;;;4995155;28;19953;-74
2021/12/12 11:54:28;;;;;;;;;;;20.80;50.10;;;;;;4994693;28;19910;-74
2021/12/12 11:56:59;;;;;;;;;;;20.80;50.20;;;;;;4977473;28;19913;-74
2021/12/12 11:59:30;;;;;;;;;;;20.80;50.20;;;;;;4977374;28;19914;-74
2021/12/12 12:02:01;;;;;;;;;;;20.80;50.10;;;;;;4994446;28;20337;-74
2021/12/12 12:04:33;;;;;;;;;;;20.70;50.00;;;;;;4976246;28;19910;-73
2021/12/12 12:06:58;;;;;;;;;;;20.70;50.20;;;;;;4961111;28;20430;-74
2021/12/12 12:09:31;;;;;;;;;;;20.70;50.10;;;;;;4994713;28;19917;-74
2021/12/12 12:12:10;;;;;;;;;;;20.70;50.20;;;;;;4994400;28;19949;-75
2021/12/12 12:14:45;;;;;;;;;;;20.70;50.20;;;;;;4994400;28;19916;-74
2021/12/12 12:17:24;;;;;;;;;;;20.70;50.10;;;;;;4994462;28;19910;-74
2021/12/12 12:20:11;;;;;;;;;;;20.70;50.00;;;;;;4994459;28;19913;-74
2021/12/12 12:22:44;;;;;;;;;;;20.70;50.10;;;;;;4994372;28;19909;-74
2021/12/12 12:25:23;;;;;;;;;;;20.70;50.10;;;;;;4994040;28;20327;-75
2021/12/12 12:27:55;;;;;;;;;;;20.70;50.10;;;;;;4994230;28;19909;-74
2021/12/12 12:30:32;;;;;;;;;;;20.70;50.10;;;;;;4994311;28;19916;-74
2021/12/12 12:33:13;;;;;;;;;;;20.70;50.20;;;;;;4976621;28;20285;-74
2021/12/12 12:35:58;;;;;;;;;;;20.70;50.10;;;;;;4994001;28;19914;-74
2021/12/12 12:38:24;;;;;;;;;;;20.70;50.10;;;;;;4994212;28;20424;-74
2021/12/12 12:41:08;;;;;;;;;;;20.70;50.10;;;;;;4993985;28;19913;-74
2021/12/12 12:43:52;;;;;;;;;;;20.70;50.20;;;;;;4993995;28;19967;-74
2021/12/12 12:46:37;;;;;;;;;;;20.70;50.20;;;;;;4959896;28;19996;-74
2021/12/12 12:49:21;;;;;;;;;;;20.70;50.20;;;;;;4993890;28;19910;-74
2021/12/12 12:52:03;;;;;;;;;;;20.70;50.20;;;;;;4993688;28;20389;-74
2021/12/12 12:54:42;;;;;;;;;;;20.70;50.20;;;;;;4976566;28;19948;-74
2021/12/12 12:57:17;;;;;;;;;;;20.70;50.20;;;;;;4976449;28;19909;-74
2021/12/12 12:59:53;;;;;;;;;;;20.70;50.20;;;;;;4993863;28;19913;-74
2021/12/12 13:02:24;;;;;;;;;;;20.80;50.10;;;;;;4976162;28;19910;-74
2021/12/12 13:04:59;;;;;;;;;;;20.80;50.20;;;;;;4993138;28;19916;-74
2021/12/12 13:07:39;;;;;;;;;;;20.70;50.10;;;;;;4976285;28;19918;-74
2021/12/12 13:10:08;;;;;;;;;;;20.80;50.20;;;;;;4976081;28;19913;-74
2021/12/12 13:12:52;;;;;;;;;;;20.70;50.10;;;;;;4993228;28;19933;-73
2021/12/12 13:15:44;;;;;;;;;;;20.70;50.20;;;;;;4975208;28;19957;-74
2021/12/12 13:18:25;;;;;;;;;;;20.70;50.20;;;;;;4990996;28;20293;-74
2021/12/12 13:20:58;;;;;;;;;;;20.80;50.30;;;;;;4975389;28;19914;-74
2021/12/12 13:23:36;;;;;;;;;;;20.70;50.20;;;;;;4993276;28;19914;-74
2021/12/12 13:26:04;;;;;;;;;;;20.70;50.20;;;;;;4975479;28;19933;-75
2021/12/12 13:28:52;;;;;;;;;;;20.70;50.20;;;;;;4993177;28;19909;-73
2021/12/12 13:31:36;;;;;;;;;;;20.70;50.20;;;;;;4956065;28;20367;-73
2021/12/12 13:34:20;;;;;;;;;;;20.70;50.30;;;;;;4975682;28;20362;-73
2021/12/12 13:37:04;;;;;;;;;;;20.70;50.20;;;;;;4992844;28;19910;-74
2021/12/12 13:39:49;;;;;;;;;;;20.70;50.20;;;;;;4992817;28;19960;-73
2021/12/12 13:42:40;;;;;;;;;;;20.70;50.20;;;;;;4975610;28;19914;-74
2021/12/12 13:45:17;;;;;;;;;;;20.70;50.80;;;;;;4975187;28;19957;-74
2021/12/12 13:47:46;;;;;;;;;;;20.70;50.30;;;;;;4992810;28;20003;-74
2021/12/12 13:50:17;;;;;;;;;;;20.70;50.20;;;;;;4975639;28;20528;-73
2021/12/12 13:52:48;;;;;;;;;;;20.70;50.20;;;;;;4975254;28;20449;-73
2021/12/12 13:55:19;;;;;;;;;;;20.70;50.10;;;;;;4992372;28;20374;-74
2021/12/12 13:57:58;;;;;;;;;;;20.70;50.20;;;;;;4975191;28;20291;-74
2021/12/12 14:00:29;;;;;;;;;;;20.70;50.20;;;;;;4992464;28;19964;-73
2021/12/12 14:03:00;;;;;;;;;;;20.60;50.10;;;;;;4992493;28;19918;-74
2021/12/12 14:05:32;;;;;;;;;;;20.70;50.10;;;;;;4992305;28;20337;-74
2021/12/12 14:08:04;;;;;;;;;;;20.70;50.10;;;;;;4959219;28;19941;-74
2021/12/12 14:10:36;;;;;;;;;;;20.70;50.20;;;;;;4992507;28;19952;-74
2021/12/12 14:13:04;;;;;;;;;;;20.70;50.20;;;;;;4959137;28;20457;-74
2021/12/12 14:15:32;;;;;;;;;;;20.70;50.00;;;;;;4991950;28;19941;-74
2021/12/12 14:17:59;;;;;;;;;;;20.70;50.10;;;;;;4992314;28;19909;-74
2021/12/12 14:20:44;;;;;;;;;;;20.70;50.10;;;;;;4991987;28;19914;-74
2021/12/12 14:23:12;;;;;;;;;;;20.70;50.10;;;;;;4974949;28;19996;-73
2021/12/12 14:25:40;;;;;;;;;;;20.70;50.10;;;;;;4991386;28;19956;-73
2021/12/12 14:28:06;;;;;;;;;;;20.70;50.20;;;;;;4992129;28;19956;-73
2021/12/12 14:30:33;;;;;;;;;;;20.70;50.20;;;;;;4974837;28;19914;-73
2021/12/12 14:33:01;;;;;;;;;;;20.70;50.10;;;;;;4974922;28;20298;-73
2021/12/12 14:35:34;;;;;;;;;;;20.70;50.20;;;;;;4991781;28;19910;-73
2021/12/12 14:38:00;;;;;;;;;;;20.70;50.20;;;;;;4974594;28;19914;-73
2021/12/12 14:40:30;;;;;;;;;;;20.70;50.10;;;;;;4992326;28;19914;-74
2021/12/12 14:43:14;;;;;;;;;;;20.70;50.10;;;;;;4974381;28;20008;-73
2021/12/12 14:46:00;;;;;;;;;;;20.70;50.10;;;;;;4991879;28;19953;-73
2021/12/12 14:48:34;;;;;;;;;;;20.70;50.20;;;;;;4974046;28;19910;-73
2021/12/12 14:51:07;;;;;;;;;;;20.70;50.20;;;;;;4974823;28;20349;-73
2021/12/12 14:53:35;;;;;;;;;;;20.70;50.10;;;;;;4974605;28;20333;-73
2021/12/12 14:56:04;;;;;;;;;;;20.70;50.10;;;;;;4991727;28;19909;-73